Time;durP1;ratioP1;P1;durP2;ratioP2;P2;SDS_P1;SDS_P2;PMS_P1;PMS_P2;Temp;Humidity;BMP_temperature;BMP_pressure;BME280_temperature;BME280_humidity;BME280_pressure;Samples;Min_cycle;Max_cycle;Signal;HPM_P1;HPM_P2
2021/11/23 00:00:10;;;;;;;4.93;4.43;;;2.80;99.90;;;;;;5124376;28;20783;-80
2021/11/23 00:02:37;;;;;;;4.40;4.00;;;2.80;99.90;;;;;;5125372;28;20380;-81
2021/11/23 00:05:03;;;;;;;4.53;3.73;;;2.80;99.90;;;;;;5124409;28;20367;-79
2021/11/23 00:07:29;;;;;;;5.27;3.60;;;2.90;99.90;;;;;;5124952;28;20839;-79
2021/11/23 00:09:55;;;;;;;4.63;4.07;;;2.90;99.90;;;;;;5124892;28;20563;-79
2021/11/23 00:12:21;;;;;;;3.87;3.40;;;2.90;99.90;;;;;;5125184;28;20162;-80
2021/11/23 00:14:47;;;;;;;4.60;3.83;;;3.00;99.90;;;;;;5125328;28;20227;-81
2021/11/23 00:17:13;;;;;;;5.23;3.97;;;3.00;99.90;;;;;;5103378;28;20452;-81
2021/11/23 00:19:42;;;;;;;3.23;2.83;;;3.00;99.90;;;;;;5102050;28;20401;-80
2021/11/23 00:22:08;;;;;;;5.20;3.40;;;3.00;99.90;;;;;;5126732;28;20424;-80
2021/11/23 00:24:34;;;;;;;6.47;3.87;;;3.00;99.90;;;;;;5126599;28;20464;-81
2021/11/23 00:27:00;;;;;;;5.63;3.93;;;3.00;99.90;;;;;;5125249;28;20185;-81
2021/11/23 00:29:25;;;;;;;5.80;4.57;;;3.00;99.90;;;;;;5126247;28;20162;-81
2021/11/23 00:31:51;;;;;;;4.93;4.40;;;3.00;99.90;;;;;;5125353;28;20890;-80
2021/11/23 00:34:17;;;;;;;5.80;3.67;;;2.90;99.90;;;;;;5124979;28;20154;-81
2021/11/23 00:36:43;;;;;;;3.43;3.23;;;2.90;99.90;;;;;;5124494;28;20210;-80
2021/11/23 00:39:09;;;;;;;5.57;4.50;;;2.90;99.90;;;;;;5124719;28;20165;-79
2021/11/23 00:41:35;;;;;;;4.17;3.70;;;2.80;99.90;;;;;;5123484;28;20381;-81
2021/11/23 00:44:02;;;;;;;5.83;3.13;;;2.80;99.90;;;;;;5123227;28;20431;-80
2021/11/23 00:46:28;;;;;;;8.00;4.73;;;2.80;99.90;;;;;;5125702;28;20486;-79
2021/11/23 00:48:54;;;;;;;3.03;2.70;;;2.80;99.90;;;;;;5109153;28;20464;-80
2021/11/23 00:51:20;;;;;;;5.80;4.00;;;2.70;99.90;;;;;;5127581;28;20534;-79
2021/11/23 00:53:46;;;;;;;6.10;3.83;;;2.60;99.90;;;;;;5109560;28;20168;-79
2021/11/23 00:56:12;;;;;;;6.10;5.13;;;2.60;99.90;;;;;;5127416;28;20407;-80
2021/11/23 00:58:38;;;;;;;5.90;4.07;;;2.60;99.90;;;;;;5128608;28;20362;-81
2021/11/23 01:01:04;;;;;;;4.17;3.80;;;2.50;99.90;;;;;;5127620;28;20395;-79
2021/11/23 01:03:32;;;;;;;4.00;3.00;;;2.30;99.90;;;;;;5127647;28;20188;-80
2021/11/23 01:06:00;;;;;;;4.23;3.33;;;2.10;99.90;;;;;;5127862;28;20377;-80
2021/11/23 01:08:27;;;;;;;4.07;3.77;;;2.00;99.90;;;;;;5128475;28;20385;-80
2021/11/23 01:10:54;;;;;;;4.60;3.53;;;2.00;99.90;;;;;;5128857;28;20457;-80
2021/11/23 01:13:21;;;;;;;3.73;3.40;;;2.20;99.90;;;;;;5129489;28;20475;-80
2021/11/23 01:15:47;;;;;;;3.77;3.33;;;2.30;99.90;;;;;;5132296;28;20414;-79
2021/11/23 01:18:14;;;;;;;4.97;4.07;;;2.30;99.90;;;;;;5130139;28;20400;-80
2021/11/23 01:20:41;;;;;;;10.30;4.17;;;2.50;99.90;;;;;;5130252;28;20389;-79
2021/11/23 01:23:08;;;;;;;6.50;3.40;;;2.40;99.90;;;;;;5130384;28;20724;-81
2021/11/23 01:25:34;;;;;;;8.00;4.23;;;2.50;99.90;;;;;;5093385;28;20473;-81
2021/11/23 01:28:00;;;;;;;8.40;5.27;;;2.50;99.90;;;;;;5128435;28;20892;-80
2021/11/23 01:30:26;;;;;;;6.83;4.90;;;2.60;99.90;;;;;;5127826;28;20439;-80
2021/11/23 01:32:53;;;;;;;4.00;3.70;;;2.60;99.90;;;;;;5127645;28;20535;-80
2021/11/23 01:35:20;;;;;;;5.40;3.70;;;2.50;99.90;;;;;;5134387;27;20401;-80
2021/11/23 01:37:47;;;;;;;3.73;3.17;;;2.50;99.90;;;;;;5140211;27;20413;-81
2021/11/23 01:40:15;;;;;;;4.63;3.80;;;2.50;99.90;;;;;;5112891;28;20407;-81
2021/11/23 01:42:41;;;;;;;3.60;3.30;;;2.50;99.90;;;;;;5130036;28;20649;-81
2021/11/23 01:45:09;;;;;;;6.83;4.00;;;2.50;99.90;;;;;;5130670;28;20367;-81
2021/11/23 01:47:35;;;;;;;5.77;3.10;;;2.60;99.90;;;;;;5124316;28;20502;-81
2021/11/23 01:50:01;;;;;;;5.95;4.25;;;2.60;99.90;;;;;;5108382;28;20415;-80
2021/11/23 01:52:27;;;;;;;8.90;3.87;;;2.60;99.90;;;;;;5108701;28;20155;-80
2021/11/23 01:54:53;;;;;;;7.97;4.90;;;2.70;99.90;;;;;;5107765;28;20418;-80
2021/11/23 01:57:19;;;;;;;4.87;3.90;;;2.60;99.90;;;;;;5107362;28;20364;-79
2021/11/23 01:59:46;;;;;;;5.67;3.80;;;2.60;99.90;;;;;;5107292;28;20408;-80
2021/11/23 02:02:12;;;;;;;5.10;4.30;;;2.60;99.90;;;;;;5107370;28;20368;-80
2021/11/23 02:04:40;;;;;;;3.70;3.33;;;2.50;99.90;;;;;;5107201;28;20404;-80
2021/11/23 02:07:06;;;;;;;2.60;2.40;;;2.50;99.90;;;;;;5089591;28;20370;-80
2021/11/23 02:09:33;;;;;;;4.27;3.87;;;2.50;99.90;;;;;;5104539;28;20438;-79
2021/11/23 02:12:01;;;;;;;4.50;3.80;;;2.40;99.90;;;;;;5089014;28;20476;-79
2021/11/23 02:14:29;;;;;;;4.73;3.87;;;2.40;99.90;;;;;;5106868;28;20396;-80
2021/11/23 02:16:56;;;;;;;2.87;2.57;;;2.30;99.90;;;;;;5107032;28;20460;-81
2021/11/23 02:19:22;;;;;;;3.80;3.43;;;2.20;99.90;;;;;;5088614;28;20389;-79
2021/11/23 02:21:48;;;;;;;4.90;3.40;;;2.20;99.90;;;;;;5106634;28;20506;-80
2021/11/23 02:24:14;;;;;;;3.83;3.53;;;2.10;99.90;;;;;;5106735;28;20401;-80
2021/11/23 02:26:41;;;;;;;3.40;3.20;;;2.10;99.90;;;;;;5107062;28;20163;-81
2021/11/23 02:29:07;;;;;;;3.30;3.00;;;2.10;99.90;;;;;;5107500;28;20392;-81
2021/11/23 02:31:33;;;;;;;3.73;3.03;;;2.00;99.90;;;;;;5089153;28;20934;-81
2021/11/23 02:33:59;;;;;;;2.60;2.50;;;2.10;99.90;;;;;;5107259;28;20401;-81
2021/11/23 02:36:26;;;;;;;4.20;2.93;;;2.00;99.90;;;;;;5107580;28;20372;-81
2021/11/23 02:38:52;;;;;;;4.33;3.83;;;1.90;99.90;;;;;;5107735;28;20450;-80
2021/11/23 02:41:18;;;;;;;4.10;3.70;;;1.80;99.90;;;;;;5106974;28;20919;-80
2021/11/23 02:43:45;;;;;;;3.43;2.27;;;1.80;99.90;;;;;;5106918;28;20390;-80
2021/11/23 02:46:11;;;;;;;2.20;2.00;;;1.80;99.90;;;;;;5107296;28;20397;-80
2021/11/23 02:48:38;;;;;;;3.43;3.00;;;1.90;99.90;;;;;;5099130;28;20425;-81
2021/11/23 02:51:16;;;;;;;3.33;2.97;;;2.00;99.90;;;;;;5106841;28;20452;-81
2021/11/23 02:53:45;;;;;;;2.50;2.30;;;2.10;99.90;;;;;;5108015;28;20454;-80
2021/11/23 02:56:12;;;;;;;3.40;3.10;;;2.10;99.90;;;;;;5108861;28;20396;-81
2021/11/23 02:58:40;;;;;;;3.90;3.60;;;2.10;99.90;;;;;;5108167;28;20415;-80
2021/11/23 03:01:08;;;;;;;3.90;3.33;;;2.10;99.90;;;;;;5109252;28;20385;-81
2021/11/23 03:03:34;;;;;;;2.83;2.60;;;2.20;99.90;;;;;;5109963;28;20367;-80
2021/11/23 03:06:01;;;;;;;6.47;3.03;;;2.20;99.90;;;;;;5109763;28;20364;-81
2021/11/23 03:08:27;;;;;;;6.83;3.50;;;2.20;99.90;;;;;;5109977;28;20400;-81
2021/11/23 03:10:54;;;;;;;6.90;3.40;;;2.20;99.90;;;;;;5109905;28;20494;-81
2021/11/23 03:13:20;;;;;;;3.43;3.13;;;2.20;99.90;;;;;;5109112;28;20367;-81
2021/11/23 03:15:46;;;;;;;3.63;3.33;;;2.20;99.90;;;;;;5108915;28;20364;-81
2021/11/23 03:18:13;;;;;;;6.00;3.20;;;2.20;99.90;;;;;;5108963;28;20415;-81
2021/11/23 03:20:39;;;;;;;3.57;3.27;;;2.10;99.90;;;;;;5100145;28;20474;-81
2021/11/23 03:23:07;;;;;;;5.67;3.60;;;2.10;99.90;;;;;;5108756;28;20393;-82
2021/11/23 03:25:33;;;;;;;20.47;4.37;;;2.10;99.90;;;;;;5110622;28;20393;-81
2021/11/23 03:27:59;;;;;;;3.03;2.83;;;2.00;99.90;;;;;;5114474;28;20392;-81
2021/11/23 03:30:28;;;;;;;3.30;2.47;;;2.00;99.90;;;;;;5112492;28;20448;-80
2021/11/23 03:32:56;;;;;;;3.93;3.27;;;1.90;99.90;;;;;;5113139;28;20368;-81
2021/11/23 03:35:23;;;;;;;5.50;4.30;;;1.80;99.90;;;;;;5112786;28;20392;-81
2021/11/23 03:37:51;;;;;;;4.87;3.67;;;1.80;99.90;;;;;;5106721;28;20159;-80
2021/11/23 03:40:19;;;;;;;2.40;2.23;;;1.80;99.90;;;;;;5109555;28;20386;-81
2021/11/23 03:42:45;;;;;;;4.07;3.60;;;1.90;99.90;;;;;;5106014;28;20445;-79
2021/11/23 03:45:11;;;;;;;4.50;2.97;;;1.90;99.90;;;;;;5105491;28;20404;-81
2021/11/23 03:47:37;;;;;;;3.03;2.93;;;1.80;99.90;;;;;;5107956;28;20458;-81
2021/11/23 03:50:06;;;;;;;4.50;3.27;;;1.80;99.90;;;;;;5125345;28;20415;-79
2021/11/23 03:52:32;;;;;;;3.73;3.17;;;1.70;99.90;;;;;;5072667;28;20413;-80
2021/11/23 03:54:58;;;;;;;3.47;2.90;;;1.60;99.90;;;;;;5126538;28;20358;-81
2021/11/23 03:57:24;;;;;;;2.80;2.60;;;1.50;99.90;;;;;;5127924;28;20362;-80
2021/11/23 03:59:50;;;;;;;3.67;3.47;;;1.60;99.90;;;;;;5128134;28;20384;-81
2021/11/23 04:02:21;;;;;;;4.47;3.60;;;1.50;99.90;;;;;;5128056;28;20367;-81
2021/11/23 04:04:48;;;;;;;3.60;3.30;;;1.60;99.90;;;;;;5127439;28;20422;-81
2021/11/23 04:07:14;;;;;;;3.80;3.27;;;1.50;99.90;;;;;;5126585;28;20362;-82
2021/11/23 04:09:40;;;;;;;6.40;4.93;;;1.50;99.90;;;;;;5125780;28;20358;-81
2021/11/23 04:12:08;;;;;;;4.47;3.93;;;1.50;99.90;;;;;;5125625;28;20474;-82
2021/11/23 04:14:34;;;;;;;2.30;2.20;;;1.50;99.90;;;;;;5125738;28;20863;-82
2021/11/23 04:16:59;;;;;;;4.57;2.70;;;1.40;99.90;;;;;;5126017;28;20366;-80
2021/11/23 04:19:26;;;;;;;3.03;2.37;;;1.40;99.90;;;;;;5126130;28;20370;-82
2021/11/23 04:21:52;;;;;;;5.00;3.80;;;1.40;99.90;;;;;;5128743;28;20638;-81
2021/11/23 04:24:17;;;;;;;4.60;3.70;;;1.40;99.90;;;;;;5129124;28;20779;-82
2021/11/23 04:26:43;;;;;;;3.07;2.87;;;1.50;99.90;;;;;;5130209;28;20379;-80
2021/11/23 04:29:09;;;;;;;3.93;3.27;;;1.40;99.90;;;;;;5129776;28;20166;-82
2021/11/23 04:31:35;;;;;;;4.37;2.67;;;1.40;99.90;;;;;;5129494;28;20194;-82
2021/11/23 04:34:01;;;;;;;2.77;2.57;;;1.40;99.90;;;;;;5129867;28;20162;-82
2021/11/23 04:36:26;;;;;;;8.37;3.03;;;1.40;99.90;;;;;;5129543;28;20162;-81
2021/11/23 04:38:52;;;;;;;2.77;2.53;;;1.30;99.90;;;;;;5131079;28;20258;-82
2021/11/23 04:41:18;;;;;;;3.20;2.90;;;1.30;99.90;;;;;;5141569;27;20150;-82
2021/11/23 04:43:45;;;;;;;3.10;2.80;;;1.30;99.90;;;;;;5137953;27;20169;-82
2021/11/23 04:46:11;;;;;;;6.47;3.10;;;1.20;99.90;;;;;;5129921;28;20257;-81
2021/11/23 04:48:37;;;;;;;3.97;3.67;;;1.30;99.90;;;;;;5112495;28;20441;-81
2021/11/23 04:51:03;;;;;;;3.70;2.50;;;1.30;99.90;;;;;;5131813;28;20193;-81
2021/11/23 04:53:29;;;;;;;4.10;3.50;;;1.30;99.90;;;;;;5131357;28;20196;-81
2021/11/23 04:55:54;;;;;;;3.70;3.07;;;1.40;99.90;;;;;;5131682;28;20392;-81
2021/11/23 04:58:20;;;;;;;6.80;3.00;;;1.40;99.90;;;;;;5131264;28;20362;-81
2021/11/23 05:00:46;;;;;;;3.73;2.80;;;1.40;99.90;;;;;;5130006;28;20579;-81
2021/11/23 05:03:12;;;;;;;3.50;3.20;;;1.40;99.90;;;;;;5130357;28;20176;-81
2021/11/23 05:05:38;;;;;;;4.03;3.13;;;1.50;99.90;;;;;;5131173;28;20169;-81
2021/11/23 05:08:04;;;;;;;5.37;3.87;;;1.40;99.90;;;;;;5131146;28;20400;-81
2021/11/23 05:10:30;;;;;;;3.37;3.07;;;1.40;99.90;;;;;;5130704;28;20421;-81
2021/11/23 05:12:56;;;;;;;3.67;3.37;;;1.40;99.90;;;;;;5130073;28;20382;-81
2021/11/23 05:15:22;;;;;;;4.47;3.00;;;1.40;99.90;;;;;;5130310;28;20392;-81
2021/11/23 05:17:48;;;;;;;5.00;3.47;;;1.40;99.90;;;;;;5130683;28;20162;-81
2021/11/23 05:20:14;;;;;;;3.57;2.87;;;1.30;99.90;;;;;;5130754;28;20458;-81
2021/11/23 05:22:40;;;;;;;4.37;3.17;;;1.30;99.90;;;;;;5129466;28;20428;-81
2021/11/23 05:25:07;;;;;;;3.70;3.40;;;1.30;99.90;;;;;;5129973;28;20174;-81
2021/11/23 05:27:33;;;;;;;4.67;3.20;;;1.30;99.90;;;;;;5129653;28;20375;-80
2021/11/23 05:30:00;;;;;;;4.20;3.13;;;1.20;99.90;;;;;;5130943;28;20968;-80
2021/11/23 05:32:27;;;;;;;5.90;3.50;;;1.20;99.90;;;;;;5129564;28;20158;-81
2021/11/23 05:34:53;;;;;;;3.07;2.87;;;1.20;99.90;;;;;;5129042;28;20403;-81
2021/11/23 05:37:19;;;;;;;5.63;4.57;;;1.20;99.90;;;;;;5129836;28;20445;-81
2021/11/23 05:39:45;;;;;;;3.73;2.50;;;1.20;99.90;;;;;;5111269;28;20371;-80
2021/11/23 05:42:11;;;;;;;6.83;3.60;;;1.20;99.90;;;;;;5130340;28;20165;-80
2021/11/23 05:44:37;;;;;;;7.27;4.63;;;1.20;99.90;;;;;;5124962;28;20184;-81
2021/11/23 05:47:04;;;;;;;4.53;4.20;;;1.10;99.90;;;;;;5129854;28;20373;-80
2021/11/23 05:49:30;;;;;;;10.93;6.67;;;1.00;99.90;;;;;;5130531;28;20370;-81
2021/11/23 05:51:55;;;;;;;5.87;4.80;;;1.00;99.90;;;;;;5130044;28;20413;-81
2021/11/23 05:54:22;;;;;;;13.73;5.90;;;1.10;99.90;;;;;;5130055;28;20178;-81
2021/11/23 05:56:48;;;;;;;5.60;4.10;;;1.20;99.90;;;;;;5129606;28;20169;-80
2021/11/23 05:59:14;;;;;;;5.67;5.20;;;1.20;99.90;;;;;;5129729;28;20406;-81
2021/11/23 06:01:40;;;;;;;8.83;5.17;;;1.30;99.90;;;;;;5129658;28;20457;-79
2021/11/23 06:04:06;;;;;;;5.80;5.20;;;1.40;99.90;;;;;;5129198;28;20503;-81
2021/11/23 06:06:32;;;;;;;14.03;6.50;;;1.30;99.90;;;;;;5110217;28;20173;-81
2021/11/23 06:08:58;;;;;;;4.37;3.37;;;1.40;99.90;;;;;;5128407;28;20289;-80
2021/11/23 06:11:23;;;;;;;4.40;3.40;;;1.30;99.90;;;;;;5128732;28;20802;-80
2021/11/23 06:13:49;;;;;;;7.53;5.30;;;1.30;99.90;;;;;;5124018;28;20232;-80
2021/11/23 06:16:15;;;;;;;4.33;4.03;;;1.20;99.90;;;;;;5128230;28;20253;-81
2021/11/23 06:18:42;;;;;;;6.40;5.67;;;1.20;99.90;;;;;;5126090;28;20177;-81
2021/11/23 06:21:08;;;;;;;4.43;4.13;;;1.10;99.90;;;;;;5128852;28;20464;-79
2021/11/23 06:23:35;;;;;;;5.50;4.20;;;1.00;99.90;;;;;;5128657;28;20419;-81
2021/11/23 06:26:02;;;;;;;5.80;4.40;;;0.90;99.90;;;;;;5112020;28;20379;-80
2021/11/23 06:28:28;;;;;;;3.53;3.00;;;0.80;99.90;;;;;;5128857;28;20399;-82
2021/11/23 06:30:54;;;;;;;3.23;3.03;;;0.90;99.90;;;;;;5130081;28;20437;-81
2021/11/23 06:33:21;;;;;;;6.10;5.53;;;1.10;99.90;;;;;;5127932;28;20392;-80
2021/11/23 06:35:47;;;;;;;6.13;4.97;;;1.20;99.90;;;;;;5121919;28;20404;-81
2021/11/23 06:38:13;;;;;;;6.50;5.10;;;1.30;99.90;;;;;;5130039;28;20390;-81
2021/11/23 06:40:40;;;;;;;6.90;4.60;;;1.40;99.90;;;;;;5111292;28;20469;-81
2021/11/23 06:43:07;;;;;;;4.37;3.97;;;1.40;99.90;;;;;;5127132;28;20427;-81
2021/11/23 06:45:34;;;;;;;3.90;3.50;;;1.40;99.90;;;;;;5129039;28;20384;-81
2021/11/23 06:48:00;;;;;;;3.43;3.13;;;1.40;99.90;;;;;;5126871;28;20422;-80
2021/11/23 06:50:32;;;;;;;4.20;3.27;;;1.30;99.90;;;;;;5128718;28;20435;-81
2021/11/23 06:53:00;;;;;;;5.13;2.90;;;1.30;99.90;;;;;;5094445;28;20375;-81
2021/11/23 06:55:26;;;;;;;5.60;5.07;;;1.20;99.90;;;;;;5117349;28;20406;-80
2021/11/23 06:57:53;;;;;;;3.20;3.00;;;1.10;99.90;;;;;;5122003;28;20384;-80
2021/11/23 07:00:19;;;;;;;3.97;3.60;;;1.00;99.90;;;;;;5124485;28;20402;-80
2021/11/23 07:02:45;;;;;;;3.60;3.30;;;0.80;99.90;;;;;;5116057;28;20423;-80
2021/11/23 07:05:10;;;;;;;6.33;4.30;;;0.80;99.90;;;;;;5111369;28;20170;-82
2021/11/23 07:07:37;;;;;;;4.30;3.90;;;0.60;99.90;;;;;;5128542;28;20238;-81
2021/11/23 07:10:08;;;;;;;14.43;5.13;;;0.50;99.90;;;;;;5128931;28;20197;-82
2021/11/23 07:12:34;;;;;;;5.13;3.63;;;0.10;99.90;;;;;;5128661;28;20393;-81
2021/11/23 07:15:00;;;;;;;8.57;3.80;;;-0.10;99.90;;;;;;5132942;27;20488;-82
2021/11/23 07:17:27;;;;;;;3.00;2.80;;;0.10;99.90;;;;;;5121643;27;20423;-82
2021/11/23 07:19:54;;;;;;;7.63;4.33;;;0.00;99.90;;;;;;5125478;27;20411;-82
2021/11/23 07:22:20;;;;;;;7.27;5.40;;;0.30;99.90;;;;;;5100022;28;20557;-82
2021/11/23 07:24:46;;;;;;;4.50;4.07;;;0.20;99.90;;;;;;5117188;28;20930;-83
2021/11/23 07:27:12;;;;;;;6.87;6.20;;;-0.10;99.90;;;;;;5117974;28;20405;-82
2021/11/23 07:29:38;;;;;;;5.23;4.73;;;-0.20;99.90;;;;;;5120779;28;20196;-82
2021/11/23 07:32:05;;;;;;;4.60;4.30;;;-0.40;99.90;;;;;;5088456;28;20529;-82
2021/11/23 07:34:31;;;;;;;5.13;4.73;;;-0.10;99.90;;;;;;5123920;28;20434;-81
2021/11/23 07:36:57;;;;;;;5.03;3.10;;;-0.20;99.90;;;;;;5121217;28;20503;-81
2021/11/23 07:39:22;;;;;;;4.50;4.07;;;-0.30;99.90;;;;;;5130866;28;20404;-81
2021/11/23 07:41:48;;;;;;;5.03;3.90;;;-0.10;99.90;;;;;;5132239;28;20185;-81
2021/11/23 07:44:14;;;;;;;11.33;4.13;;;0.10;99.90;;;;;;5138768;27;20165;-81
2021/11/23 07:46:40;;;;;;;6.93;3.90;;;0.70;99.90;;;;;;5093951;28;20169;-81
2021/11/23 07:49:28;;;;;;;7.23;4.70;;;1.10;99.90;;;;;;5119196;28;20497;-80
2021/11/23 07:52:00;;;;;;;5.87;4.17;;;1.40;99.90;;;;;;5042172;28;20476;-81
2021/11/23 07:54:36;;;;;;;8.37;5.90;;;1.50;99.90;;;;;;5014804;28;20417;-80
2021/11/23 07:57:05;;;;;;;8.98;8.00;;;1.50;99.90;;;;;;5042649;28;20419;-82
2021/11/23 07:59:31;;;;;;;6.73;6.03;;;2.10;99.90;;;;;;5048378;28;20180;-81
2021/11/23 08:02:00;;;;;;;5.87;4.60;;;2.60;99.90;;;;;;5044382;28;20191;-77
2021/11/23 08:04:29;;;;;;;5.77;5.27;;;2.90;99.90;;;;;;4996094;28;20188;-79
2021/11/23 08:07:03;;;;;;;8.48;7.45;;;2.70;99.90;;;;;;5034554;28;20549;-79
2021/11/23 08:09:33;;;;;;;7.13;5.80;;;3.00;99.90;;;;;;5021276;28;20574;-80
2021/11/23 08:11:59;;;;;;;6.60;5.90;;;3.60;99.90;;;;;;5024109;28;20445;-80
2021/11/23 08:14:25;;;;;;;5.47;4.90;;;3.80;99.90;;;;;;5011058;28;20410;-79
2021/11/23 08:16:54;;;;;;;5.27;4.83;;;4.00;99.90;;;;;;5029637;28;20296;-77
2021/11/23 08:19:21;;;;;;;5.93;4.50;;;3.10;99.90;;;;;;5028156;28;20477;-77
2021/11/23 08:21:50;;;;;;;8.87;5.17;;;3.20;99.90;;;;;;4964344;28;20459;-79
2021/11/23 08:24:17;;;;;;;5.90;4.40;;;2.30;99.90;;;;;;5007354;28;20398;-80
2021/11/23 08:26:44;;;;;;;6.30;5.00;;;2.70;99.90;;;;;;4976033;28;20769;-80
2021/11/23 08:29:12;;;;;;;7.10;5.37;;;2.40;99.90;;;;;;4961394;28;20195;-80
2021/11/23 08:31:38;;;;;;;4.50;4.10;;;2.60;99.90;;;;;;4949233;28;20473;-80
2021/11/23 08:34:12;;;;;;;6.13;5.53;;;2.70;99.90;;;;;;4911055;29;20407;-80
2021/11/23 08:36:39;;;;;;;3.47;3.27;;;3.00;99.90;;;;;;4940848;29;20406;-79
2021/11/23 08:39:07;;;;;;;12.73;5.57;;;3.00;99.90;;;;;;4889743;29;20425;-80
2021/11/23 08:41:35;;;;;;;6.50;4.60;;;4.00;99.90;;;;;;4888589;29;20441;-79
2021/11/23 08:44:01;;;;;;;7.45;6.75;;;5.00;99.90;;;;;;4871269;29;20427;-79
2021/11/23 08:46:30;;;;;;;8.00;6.40;;;5.90;99.90;;;;;;4884452;29;20254;-79
2021/11/23 08:48:56;;;;;;;6.27;5.50;;;5.20;99.90;;;;;;4868867;29;20474;-79
2021/11/23 08:51:26;;;;;;;9.47;6.77;;;6.30;99.90;;;;;;4856020;29;20474;-79
2021/11/23 08:53:53;;;;;;;8.50;7.67;;;8.00;99.90;;;;;;4871754;29;20777;-79
2021/11/23 08:56:32;;;;;;;15.30;7.33;;;8.90;99.90;;;;;;4877664;29;20416;-81
2021/11/23 08:58:58;;;;;;;8.10;6.40;;;9.90;99.90;;;;;;4913759;29;20788;-80
2021/11/23 09:01:26;;;;;;;10.73;7.00;;;8.60;99.90;;;;;;4935904;29;20436;-81
2021/11/23 09:04:13;;;;;;;8.13;7.33;;;8.90;99.90;;;;;;4930902;28;20204;-81
2021/11/23 09:06:41;;;;;;;13.10;6.87;;;8.40;99.90;;;;;;4926046;29;20476;-80
2021/11/23 09:09:09;;;;;;;6.93;6.33;;;9.40;99.90;;;;;;4900861;29;20431;-81
2021/11/23 09:11:37;;;;;;;8.80;6.47;;;9.90;99.90;;;;;;4909249;29;20459;-79
2021/11/23 09:14:08;;;;;;;9.20;6.77;;;10.80;99.90;;;;;;4929136;29;20420;-80
2021/11/23 09:16:36;;;;;;;6.87;6.27;;;10.20;99.90;;;;;;4948653;29;20458;-80
2021/11/23 09:19:04;;;;;;;8.23;6.70;;;10.80;99.90;;;;;;4912645;29;20488;-80
2021/11/23 09:21:33;;;;;;;15.43;7.80;;;11.60;99.90;;;;;;4932224;29;20462;-80
2021/11/23 09:23:59;;;;;;;7.93;6.23;;;10.40;99.90;;;;;;4936809;29;20924;-78
2021/11/23 09:26:26;;;;;;;9.77;6.73;;;11.30;99.90;;;;;;4949664;29;20421;-79
2021/11/23 09:28:54;;;;;;;8.13;5.87;;;11.70;99.90;;;;;;4927971;29;20455;-78
2021/11/23 09:31:24;;;;;;;15.00;8.07;;;11.80;99.90;;;;;;4943235;28;20463;-79
2021/11/23 09:33:51;;;;;;;7.77;7.00;;;11.30;99.90;;;;;;4986055;28;20429;-80
2021/11/23 09:36:44;;;;;;;8.33;6.73;;;11.60;99.90;;;;;;4968330;28;20445;-79
2021/11/23 09:39:13;;;;;;;9.10;6.73;;;11.90;99.90;;;;;;4974495;28;20429;-79
2021/11/23 09:41:39;;;;;;;9.60;7.40;;;11.60;99.90;;;;;;4991558;28;20433;-79
2021/11/23 09:44:06;;;;;;;9.40;7.77;;;10.30;99.90;;;;;;4980593;28;21814;-81
2021/11/23 09:46:38;;;;;;;6.97;6.27;;;11.90;99.90;;;;;;5002873;28;20421;-79
2021/11/23 09:49:07;;;;;;;9.20;7.53;;;13.10;99.90;;;;;;4986059;28;20797;-79
2021/11/23 09:51:35;;;;;;;9.20;6.60;;;13.80;99.90;;;;;;5017650;28;20502;-80
2021/11/23 09:54:07;;;;;;;9.00;7.50;;;13.00;99.90;;;;;;5035553;28;20413;-80
2021/11/23 09:56:38;;;;;;;6.37;5.83;;;13.70;99.90;;;;;;4972664;28;20449;-80
2021/11/23 09:59:05;;;;;;;11.97;6.20;;;13.30;99.90;;;;;;5049243;28;20441;-77
2021/11/23 10:01:50;;;;;;;11.23;6.37;;;14.40;99.90;;;;;;5034459;28;20447;-80
2021/11/23 10:04:29;;;;;;;8.93;6.00;;;13.30;99.70;;;;;;5031663;28;20442;-80
2021/11/23 10:07:14;;;;;;;7.40;5.30;;;13.40;99.90;;;;;;5009490;28;20420;-82
2021/11/23 10:09:43;;;;;;;6.63;6.00;;;12.80;99.90;;;;;;5018726;28;20523;-82
2021/11/23 10:12:14;;;;;;;10.03;6.40;;;12.90;99.90;;;;;;5020004;28;20225;-78
2021/11/23 10:15:01;;;;;;;6.90;5.93;;;12.50;99.90;;;;;;5037789;28;20438;-78
2021/11/23 10:17:27;;;;;;;11.30;6.83;;;12.70;99.90;;;;;;5052801;28;20549;-78
2021/11/23 10:19:53;;;;;;;7.20;6.50;;;12.80;99.90;;;;;;5058514;28;20430;-82
2021/11/23 10:22:37;;;;;;;7.27;6.57;;;13.00;99.90;;;;;;5041823;28;20424;-81
2021/11/23 10:25:06;;;;;;;11.63;8.60;;;14.50;99.90;;;;;;5059204;28;20430;-81
2021/11/23 10:27:36;;;;;;;11.00;8.83;;;13.80;99.90;;;;;;5062469;28;20460;-82
2021/11/23 10:30:03;;;;;;;10.07;8.50;;;12.40;99.90;;;;;;5049396;28;20427;-82
2021/11/23 10:32:46;;;;;;;8.70;6.73;;;13.30;99.90;;;;;;5051651;28;20453;-81
2021/11/23 10:35:15;;;;;;;8.10;6.90;;;13.90;99.90;;;;;;5044022;28;20431;-78
2021/11/23 10:37:41;;;;;;;8.47;7.60;;;13.80;99.90;;;;;;5061704;28;20953;-81
2021/11/23 10:40:12;;;;;;;7.43;6.73;;;14.90;99.80;;;;;;5057648;28;20435;-78
2021/11/23 10:42:39;;;;;;;9.07;7.73;;;16.00;95.90;;;;;;5055849;28;20454;-80
2021/11/23 10:45:09;;;;;;;12.30;7.00;;;16.30;93.30;;;;;;5085516;28;20474;-80
2021/11/23 10:47:46;;;;;;;9.83;7.73;;;14.50;92.90;;;;;;5080239;28;20816;-79
2021/11/23 10:50:12;;;;;;;9.40;7.20;;;13.90;94.60;;;;;;5096124;28;20477;-79
2021/11/23 10:52:45;;;;;;;9.77;7.20;;;13.80;95.50;;;;;;5098747;28;20431;-80
2021/11/23 10:55:36;;;;;;;12.67;7.77;;;14.00;95.70;;;;;;5017621;28;20494;-80
2021/11/23 10:58:06;;;;;;;7.83;7.13;;;14.50;96.20;;;;;;4966442;28;20437;-80
2021/11/23 11:00:40;;;;;;;8.53;7.57;;;15.60;94.70;;;;;;4967496;28;20441;-80
2021/11/23 11:03:10;;;;;;;15.67;12.40;;;16.50;94.90;;;;;;4926585;29;20466;-80
2021/11/23 11:05:39;;;;;;;15.55;11.30;;;16.90;94.00;;;;;;4941488;29;20577;-80
2021/11/23 11:08:07;;;;;;;9.70;8.60;;;16.80;93.20;;;;;;4944470;29;20195;-80
2021/11/23 11:10:36;;;;;;;7.38;6.68;;;16.80;93.70;;;;;;4950882;29;20508;-80
2021/11/23 11:13:09;;;;;;;11.20;7.37;;;18.00;91.80;;;;;;4908877;29;20200;-80
2021/11/23 11:15:53;;;;;;;8.50;7.23;;;17.90;92.10;;;;;;4912576;29;20439;-79
2021/11/23 11:18:22;;;;;;;7.87;7.17;;;18.50;87.00;;;;;;4935093;29;20425;-79
2021/11/23 11:21:08;;;;;;;8.57;6.57;;;18.90;84.40;;;;;;4925166;29;20430;-78
2021/11/23 11:23:44;;;;;;;9.97;7.23;;;18.90;83.20;;;;;;4900854;28;20511;-80
2021/11/23 11:26:22;;;;;;;7.87;7.10;;;18.10;85.80;;;;;;4905537;29;20479;-77
2021/11/23 11:28:52;;;;;;;7.40;6.50;;;19.30;82.50;;;;;;4885255;29;20436;-78
2021/11/23 11:31:35;;;;;;;6.60;6.03;;;16.40;81.10;;;;;;4941203;29;20529;-78
2021/11/23 11:34:24;;;;;;;7.17;6.47;;;16.90;83.40;;;;;;4932198;29;20438;-79
2021/11/23 11:37:05;;;;;;;6.17;5.57;;;16.50;85.30;;;;;;4946831;29;20464;-80
2021/11/23 11:39:59;;;;;;;8.10;7.40;;;16.70;86.50;;;;;;4935129;28;20903;-77
2021/11/23 11:42:47;;;;;;;12.70;5.97;;;18.00;84.20;;;;;;4960299;29;20439;-79
2021/11/23 11:45:13;;;;;;;24.73;6.83;;;17.60;85.90;;;;;;4945277;29;20436;-80
2021/11/23 11:47:53;;;;;;;14.73;13.23;;;18.80;80.50;;;;;;4965705;28;20446;-78
2021/11/23 11:50:26;;;;;;;6.90;6.20;;;18.50;78.60;;;;;;4977310;28;20470;-79
2021/11/23 11:53:06;;;;;;;7.40;6.70;;;17.10;79.00;;;;;;4940875;28;20442;-83
2021/11/23 11:55:34;;;;;;;8.10;6.37;;;16.50;83.00;;;;;;4950599;28;20452;-82
2021/11/23 11:58:04;;;;;;;5.77;5.17;;;16.40;84.70;;;;;;4955476;28;20449;-82
2021/11/23 12:00:33;;;;;;;5.50;5.03;;;16.90;86.20;;;;;;4953694;28;20470;-82
2021/11/23 12:03:31;;;;;;;7.50;5.70;;;17.00;83.40;;;;;;4951130;28;20442;-79
2021/11/23 12:06:07;;;;;;;6.40;5.80;;;19.10;77.00;;;;;;4950686;28;20437;-80
2021/11/23 12:09:12;;;;;;;6.40;5.20;;;19.90;71.80;;;;;;4939476;29;20451;-80
2021/11/23 12:11:40;;;;;;;7.07;6.37;;;19.00;69.60;;;;;;4901158;29;20473;-80
2021/11/23 12:14:10;;;;;;;6.63;5.87;;;17.70;68.80;;;;;;4903962;29;20434;-81
2021/11/23 12:16:57;;;;;;;6.00;4.67;;;16.70;72.40;;;;;;4904638;29;20441;-80
2021/11/23 12:19:42;;;;;;;5.83;5.23;;;15.80;74.20;;;;;;4935711;29;20446;-79
2021/11/23 12:22:22;;;;;;;8.30;5.67;;;14.60;78.00;;;;;;4945358;28;20526;-80
2021/11/23 12:24:51;;;;;;;6.13;5.60;;;17.30;73.40;;;;;;4973467;28;20529;-79
2021/11/23 12:27:18;;;;;;;6.27;5.27;;;17.90;69.40;;;;;;4974251;28;20545;-79
2021/11/23 12:29:48;;;;;;;5.50;5.00;;;16.70;70.30;;;;;;4963534;28;20861;-79
2021/11/23 12:32:16;;;;;;;7.50;5.30;;;15.80;70.00;;;;;;4974363;28;20466;-78
2021/11/23 12:34:54;;;;;;;5.10;4.70;;;15.40;72.10;;;;;;4979476;28;20500;-80
2021/11/23 12:37:33;;;;;;;5.40;4.90;;;15.30;72.10;;;;;;4974090;28;20433;-79
2021/11/23 12:40:12;;;;;;;6.07;5.20;;;13.30;74.70;;;;;;4973520;28;20437;-79
2021/11/23 12:43:05;;;;;;;5.50;4.90;;;14.40;75.90;;;;;;4995140;28;20427;-80
2021/11/23 12:45:41;;;;;;;5.23;4.77;;;14.50;74.90;;;;;;4936556;29;20924;-80
2021/11/23 12:48:15;;;;;;;7.30;5.30;;;14.60;79.30;;;;;;4911808;29;20473;-79
2021/11/23 12:50:41;;;;;;;4.90;4.37;;;13.20;80.30;;;;;;4959370;29;20540;-80
2021/11/23 12:53:12;;;;;;;7.97;5.70;;;14.30;77.20;;;;;;4992438;28;20463;-79
2021/11/23 12:55:37;;;;;;;4.57;4.17;;;13.70;78.70;;;;;;5008653;28;20432;-78
2021/11/23 12:58:04;;;;;;;4.43;4.03;;;12.80;82.90;;;;;;5004774;28;20500;-81
2021/11/23 13:00:35;;;;;;;5.70;4.40;;;13.00;83.10;;;;;;5006487;28;20460;-79